createdAt,value
2019-01-31T00:02:25.658Z,22.43
2019-01-31T00:05:24.616Z,19.10
2019-01-31T00:08:45.488Z,20.23
2019-01-31T00:11:42.080Z,23.83
2019-01-31T00:14:58.498Z,19.80
2019-01-31T00:18:13.004Z,19.67
2019-01-31T00:21:07.415Z,24.90
2019-01-31T00:24:12.738Z,21.23
2019-01-31T00:27:30.475Z,17.90
2019-01-31T00:30:40.878Z,20.77
2019-01-31T00:33:32.058Z,24.10
2019-01-31T00:36:40.912Z,23.90
2019-01-31T00:39:50.300Z,24.27
2019-01-31T00:42:49.146Z,17.67
2019-01-31T00:45:39.171Z,17.50
2019-01-31T00:48:34.683Z,17.30
2019-01-31T00:51:13.759Z,16.47
2019-01-31T00:54:10.404Z,20.90
2019-01-31T00:57:15.194Z,16.43
2019-01-31T01:00:11.228Z,13.87
2019-01-31T01:03:11.038Z,13.27
2019-01-31T01:06:23.114Z,14.33
2019-01-31T01:09:18.727Z,13.67
2019-01-31T01:12:41.980Z,14.50
2019-01-31T01:15:50.235Z,10.17
2019-01-31T01:18:36.094Z,11.07
2019-01-31T01:22:08.789Z,9.43
2019-01-31T01:25:20.003Z,10.50
2019-01-31T01:28:01.746Z,13.63
2019-01-31T01:31:21.863Z,14.10
2019-01-31T01:34:43.297Z,14.27
2019-01-31T01:37:52.831Z,14.27
2019-01-31T01:41:03.141Z,14.17
2019-01-31T01:43:49.653Z,8.60
2019-01-31T01:46:51.735Z,9.67
2019-01-31T01:49:49.896Z,11.80
2019-01-31T01:52:50.896Z,8.63
2019-01-31T01:55:34.474Z,5.43
2019-01-31T01:58:57.994Z,8.63
2019-01-31T02:02:08.684Z,4.87
2019-01-31T02:05:15.005Z,5.47
2019-01-31T02:08:08.291Z,5.90
2019-01-31T02:10:59.598Z,5.93
2019-01-31T02:14:20.293Z,3.90
2019-01-31T02:16:58.786Z,4.00
2019-01-31T02:20:13.243Z,5.20
2019-01-31T02:23:23.554Z,2.63
2019-01-31T02:26:29.594Z,6.07
2019-01-31T02:29:37.776Z,5.03
2019-01-31T02:32:52.118Z,3.67
2019-01-31T02:35:53.271Z,6.20
2019-01-31T02:38:51.926Z,2.37
2019-01-31T02:42:18.135Z,0.80
2019-01-31T02:45:47.349Z,3.53
2019-01-31T02:48:51.410Z,2.93
2019-01-31T02:52:07.290Z,2.30
2019-01-31T02:54:46.720Z,3.43
2019-01-31T02:57:54.100Z,3.90
2019-01-31T03:00:34.938Z,1.50
2019-01-31T03:03:43.617Z,1.63
2019-01-31T03:07:13.249Z,1.13
2019-01-31T03:10:18.230Z,1.57
2019-01-31T03:13:26.625Z,1.60
2019-01-31T03:16:26.477Z,2.03
2019-01-31T03:19:40.677Z,0.90
2019-01-31T03:22:48.739Z,1.40
2019-01-31T03:25:35.177Z,1.80
2019-01-31T03:28:40.662Z,3.77
2019-01-31T03:31:49.005Z,4.13
2019-01-31T03:34:59.784Z,1.60
2019-01-31T03:37:53.895Z,1.37
2019-01-31T03:40:48.723Z,1.83
2019-01-31T03:43:55.891Z,1.80
2019-01-31T03:47:26.665Z,4.03
2019-01-31T03:50:27.399Z,4.50
2019-01-31T03:53:44.357Z,7.20
2019-01-31T03:56:49.477Z,2.30
2019-01-31T03:59:27.110Z,2.03
2019-01-31T04:02:07.107Z,2.13
2019-01-31T04:04:45.305Z,2.23
2019-01-31T04:07:15.596Z,4.40
2019-01-31T04:09:45.858Z,3.43
2019-01-31T04:12:16.201Z,4.70
2019-01-31T04:14:48.239Z,5.00
2019-01-31T04:17:18.576Z,2.07
2019-01-31T04:19:48.845Z,6.17
2019-01-31T04:22:19.210Z,4.33
2019-01-31T04:24:49.573Z,2.77
2019-01-31T04:27:19.894Z,7.77
2019-01-31T04:29:50.238Z,6.17
2019-01-31T04:32:20.510Z,15.00
2019-01-31T04:34:50.940Z,8.17
2019-01-31T04:37:21.196Z,7.10
2019-01-31T04:39:51.596Z,6.07
2019-01-31T04:42:24.878Z,6.50
2019-01-31T04:44:55.276Z,4.80
2019-01-31T04:47:27.855Z,6.87
2019-01-31T04:49:58.206Z,6.33
2019-01-31T04:52:28.538Z,8.93
2019-01-31T04:55:00.196Z,5.80
2019-01-31T04:57:30.525Z,5.33
2019-01-31T05:00:01.043Z,6.50
2019-01-31T05:02:31.439Z,5.23
2019-01-31T05:05:06.500Z,5.67
2019-01-31T05:07:36.932Z,6.53
2019-01-31T05:10:09.388Z,6.90
2019-01-31T05:12:39.726Z,9.37
2019-01-31T05:15:12.917Z,7.30
2019-01-31T05:17:43.291Z,10.60
2019-01-31T05:20:16.244Z,11.13
2019-01-31T05:22:46.492Z,9.77
2019-01-31T05:25:17.019Z,7.87
2019-01-31T05:27:47.319Z,10.00
2019-01-31T05:30:17.721Z,12.93
2019-01-31T05:32:47.995Z,13.90
2019-01-31T05:35:18.457Z,18.43
2019-01-31T05:37:48.859Z,15.37
2019-01-31T05:40:19.281Z,16.57
2019-01-31T05:43:03.224Z,11.20
2019-01-31T05:45:35.044Z,11.70
2019-01-31T05:48:05.347Z,11.90
2019-01-31T05:50:36.499Z,13.40
2019-01-31T05:53:06.825Z,14.47
2019-01-31T05:55:37.273Z,18.13
2019-01-31T05:58:07.572Z,13.50
2019-01-31T06:00:39.222Z,18.63
2019-01-31T06:03:09.661Z,13.23
2019-01-31T06:05:40.128Z,15.53
2019-01-31T06:08:10.469Z,15.80
2019-01-31T06:10:40.877Z,19.93
2019-01-31T06:13:11.280Z,16.40
2019-01-31T06:15:41.616Z,21.43
2019-01-31T06:18:12.127Z,26.70
2019-01-31T06:20:42.478Z,19.60
2019-01-31T06:23:12.861Z,19.67
2019-01-31T06:25:52.338Z,21.23
2019-01-31T06:28:22.665Z,21.43
2019-01-31T06:30:52.926Z,20.37
2019-01-31T06:33:23.706Z,22.60
2019-01-31T06:35:54.099Z,26.93
2019-01-31T06:38:24.328Z,24.50
2019-01-31T06:40:54.609Z,25.27
2019-01-31T06:43:24.886Z,27.77
2019-01-31T06:45:56.344Z,23.37
2019-01-31T06:48:26.881Z,26.67
2019-01-31T06:50:57.232Z,29.27
2019-01-31T06:53:27.494Z,29.57
2019-01-31T06:55:57.848Z,27.47
2019-01-31T06:58:28.170Z,26.13
2019-01-31T07:00:58.648Z,28.33
2019-01-31T07:03:29.042Z,26.93
2019-01-31T07:05:59.401Z,32.10
2019-01-31T07:08:29.693Z,30.33
2019-01-31T07:11:00.829Z,33.63
2019-01-31T07:13:33.861Z,36.83
2019-01-31T07:16:03.134Z,32.47
2019-01-31T07:18:33.447Z,33.47
2019-01-31T07:21:03.761Z,34.37
2019-01-31T07:23:34.111Z,38.73
2019-01-31T07:26:04.410Z,33.33
2019-01-31T07:28:36.325Z,34.60
2019-01-31T07:31:06.854Z,33.47
2019-01-31T07:33:37.277Z,34.10
2019-01-31T07:36:07.744Z,38.37
2019-01-31T07:38:38.789Z,38.23
2019-01-31T07:41:11.246Z,38.83
2019-01-31T07:43:41.774Z,33.20
2019-01-31T07:46:12.147Z,32.73
2019-01-31T07:48:42.609Z,34.30
2019-01-31T07:51:13.067Z,33.80
2019-01-31T07:53:43.491Z,34.77
2019-01-31T07:56:13.998Z,33.70
2019-01-31T07:58:44.424Z,37.47
2019-01-31T08:01:15.034Z,29.77
2019-01-31T08:03:47.040Z,30.50
2019-01-31T08:06:17.538Z,30.63
2019-01-31T08:08:47.872Z,33.00
2019-01-31T08:11:18.308Z,28.40
2019-01-31T08:13:48.634Z,28.80
2019-01-31T08:16:19.618Z,29.37
2019-01-31T08:18:50.150Z,30.70
2019-01-31T08:21:20.544Z,29.23
2019-01-31T08:23:50.980Z,30.40
2019-01-31T08:26:21.439Z,32.33
2019-01-31T08:28:51.836Z,33.27
2019-01-31T08:31:22.432Z,31.47
2019-01-31T08:33:53.086Z,32.77
2019-01-31T08:36:23.452Z,35.03
2019-01-31T08:38:54.111Z,31.40
2019-01-31T08:41:24.410Z,37.03
2019-01-31T08:43:54.715Z,32.43
2019-01-31T08:46:25.119Z,34.77
2019-01-31T08:48:55.377Z,31.33
2019-01-31T08:51:25.810Z,31.03
2019-01-31T08:53:56.169Z,29.40
2019-01-31T08:56:26.481Z,26.70
2019-01-31T08:58:56.787Z,29.20
2019-01-31T09:01:27.131Z,29.87
2019-01-31T09:03:57.404Z,31.20
2019-01-31T09:06:27.823Z,30.10
2019-01-31T09:08:58.311Z,28.63
2019-01-31T09:11:28.799Z,30.67
2019-01-31T09:13:59.228Z,28.27
2019-01-31T09:16:29.605Z,33.03
2019-01-31T09:19:00.084Z,25.80
2019-01-31T09:21:43.449Z,24.60
2019-01-31T09:24:32.947Z,25.67
2019-01-31T09:27:40.722Z,23.27
2019-01-31T09:30:45.260Z,23.77
2019-01-31T09:34:05.832Z,27.80
2019-01-31T09:36:47.729Z,27.43
2019-01-31T09:40:02.666Z,21.97
2019-01-31T09:42:45.654Z,21.67
2019-01-31T09:45:45.273Z,21.83
2019-01-31T09:48:59.919Z,20.00
2019-01-31T09:52:03.144Z,24.17
2019-01-31T09:55:02.285Z,25.47
2019-01-31T09:58:20.975Z,28.00
2019-01-31T10:01:01.023Z,24.13
2019-01-31T10:03:54.660Z,22.07
2019-01-31T10:06:47.521Z,22.97
2019-01-31T10:09:42.383Z,21.87
2019-01-31T10:13:02.976Z,25.67
2019-01-31T10:15:46.429Z,23.57
2019-01-31T10:18:57.970Z,24.47
2019-01-31T10:22:05.447Z,21.10
2019-01-31T10:25:19.940Z,23.90
2019-01-31T10:28:52.543Z,23.67
2019-01-31T10:31:55.096Z,24.87
2019-01-31T10:34:42.138Z,22.57
2019-01-31T10:37:48.995Z,26.50
2019-01-31T10:40:54.969Z,21.20
2019-01-31T10:43:38.768Z,19.83
2019-01-31T10:46:59.288Z,23.17
2019-01-31T10:50:12.084Z,20.27
2019-01-31T10:53:03.200Z,20.00
2019-01-31T10:55:59.521Z,20.40
2019-01-31T10:58:58.110Z,19.37
2019-01-31T11:01:54.587Z,25.20
2019-01-31T11:04:52.999Z,22.70
2019-01-31T11:07:49.743Z,23.30
2019-01-31T11:10:33.798Z,26.90
2019-01-31T11:13:34.462Z,29.83
2019-01-31T11:16:47.406Z,24.07
2019-01-31T11:19:54.805Z,27.30
2019-01-31T11:23:21.823Z,28.17
2019-01-31T11:26:29.737Z,31.03
2019-01-31T11:29:25.243Z,35.97
2019-01-31T11:32:18.994Z,36.63
2019-01-31T11:35:24.743Z,38.73
2019-01-31T11:38:41.961Z,43.63
2019-01-31T11:41:26.690Z,40.83
2019-01-31T11:44:44.923Z,45.07
2019-01-31T11:47:52.583Z,60.60
2019-01-31T11:50:50.777Z,69.90
2019-01-31T11:53:34.501Z,70.50
2019-01-31T11:56:49.442Z,76.97
2019-01-31T11:59:19.801Z,87.30
2019-01-31T12:01:50.158Z,86.70
2019-01-31T12:04:20.560Z,85.43
2019-01-31T12:06:51.116Z,97.03
2019-01-31T12:09:22.578Z,81.17
2019-01-31T12:11:53.076Z,81.83
2019-01-31T12:14:25.101Z,83.97
2019-01-31T12:16:55.524Z,97.80
2019-01-31T12:19:26.541Z,93.13
2019-01-31T12:21:57.782Z,88.77
2019-01-31T12:24:28.365Z,97.50
2019-01-31T12:26:58.755Z,87.80
2019-01-31T12:29:29.180Z,98.60
2019-01-31T12:31:59.991Z,103.33
2019-01-31T12:34:30.301Z,106.67
2019-01-31T12:37:02.272Z,110.13
2019-01-31T12:39:33.721Z,105.83
2019-01-31T12:42:04.679Z,103.63
2019-01-31T12:44:35.118Z,96.73
2019-01-31T12:47:05.416Z,97.17
2019-01-31T12:49:35.743Z,103.67
2019-01-31T12:52:06.195Z,94.63
2019-01-31T12:54:36.531Z,105.07
2019-01-31T12:57:08.442Z,101.17
2019-01-31T12:59:38.904Z,89.47
2019-01-31T13:02:09.861Z,87.90
2019-01-31T13:04:42.435Z,90.90
2019-01-31T13:07:13.581Z,86.57
2019-01-31T13:09:43.991Z,99.57
2019-01-31T13:12:14.416Z,92.77
2019-01-31T13:14:46.068Z,97.60
2019-01-31T13:17:16.536Z,102.73
2019-01-31T13:19:46.981Z,88.07
2019-01-31T13:22:20.716Z,103.50
2019-01-31T13:24:51.108Z,92.07
2019-01-31T13:27:22.362Z,113.67
2019-01-31T13:29:53.004Z,101.23
2019-01-31T13:32:23.532Z,103.07
2019-01-31T13:34:53.851Z,94.97
2019-01-31T13:37:24.336Z,90.90
2019-01-31T13:39:54.943Z,110.60
2019-01-31T13:42:25.340Z,102.93
2019-01-31T13:44:55.716Z,104.37
2019-01-31T13:47:26.138Z,104.33
2019-01-31T13:49:56.571Z,110.83
2019-01-31T13:52:29.395Z,110.87
2019-01-31T13:54:59.831Z,116.50
2019-01-31T13:57:30.435Z,121.90
2019-01-31T14:00:03.739Z,127.47
2019-01-31T14:02:35.320Z,124.00
2019-01-31T14:05:06.217Z,116.80
2019-01-31T14:07:36.721Z,113.67
2019-01-31T14:10:10.389Z,116.27
2019-01-31T14:12:40.859Z,114.40
2019-01-31T14:15:12.407Z,124.80
2019-01-31T14:17:43.026Z,128.63
2019-01-31T14:20:17.294Z,127.27
2019-01-31T14:22:51.199Z,123.17
2019-01-31T14:25:22.118Z,121.73
2019-01-31T14:27:53.139Z,127.80
2019-01-31T14:30:35.102Z,117.90
2019-01-31T14:33:10.780Z,121.37
2019-01-31T14:35:41.183Z,127.40
2019-01-31T14:38:12.162Z,121.67
2019-01-31T14:40:44.200Z,119.60
2019-01-31T14:43:17.258Z,118.90
2019-01-31T14:45:47.949Z,115.37
2019-01-31T14:48:18.679Z,110.83
2019-01-31T14:50:49.967Z,115.87
2019-01-31T14:53:20.667Z,127.23
2019-01-31T14:55:51.214Z,116.73
2019-01-31T14:58:24.106Z,131.93
2019-01-31T15:00:54.679Z,123.87
2019-01-31T15:03:27.877Z,129.07
2019-01-31T15:06:02.747Z,114.97
2019-01-31T15:08:35.533Z,119.87
2019-01-31T15:11:06.259Z,129.83
2019-01-31T15:13:36.745Z,125.90
2019-01-31T15:16:08.722Z,113.53
2019-01-31T15:18:39.428Z,118.23
2019-01-31T15:21:10.158Z,117.90
2019-01-31T15:23:40.844Z,106.93
2019-01-31T15:26:14.344Z,105.03
2019-01-31T15:28:47.905Z,110.70
2019-01-31T15:31:18.351Z,105.00
2019-01-31T15:33:49.087Z,91.27
2019-01-31T15:36:20.952Z,99.53
2019-01-31T15:38:51.634Z,98.40
2019-01-31T15:41:22.107Z,103.57
2019-01-31T15:43:52.833Z,101.30
2019-01-31T15:46:23.802Z,101.63
2019-01-31T15:48:54.438Z,104.90
2019-01-31T15:51:27.318Z,108.10
2019-01-31T15:54:00.757Z,113.97
2019-01-31T15:56:31.291Z,116.47
2019-01-31T15:59:01.946Z,126.50
2019-01-31T16:01:32.723Z,122.17
2019-01-31T16:04:03.231Z,114.80
2019-01-31T16:06:34.857Z,128.10
2019-01-31T16:09:09.026Z,112.90
2019-01-31T16:11:41.693Z,110.17
2019-01-31T16:14:12.351Z,119.30
2019-01-31T16:16:43.796Z,104.50
2019-01-31T16:19:16.872Z,100.20
2019-01-31T16:21:47.361Z,96.47
2019-01-31T16:24:17.850Z,91.03
2019-01-31T16:26:48.437Z,91.23
2019-01-31T16:29:18.910Z,83.80
2019-01-31T16:31:49.432Z,85.67
2019-01-31T16:34:21.893Z,81.23
2019-01-31T16:36:52.379Z,80.37
2019-01-31T16:39:22.692Z,75.03
2019-01-31T16:41:54.633Z,70.63
2019-01-31T16:44:24.997Z,62.60
2019-01-31T16:46:55.327Z,56.70
2019-01-31T16:49:25.767Z,63.87
2019-01-31T16:51:57.959Z,65.03
2019-01-31T16:54:28.414Z,59.40
2019-01-31T16:56:58.788Z,61.37
2019-01-31T16:59:29.210Z,63.47
2019-01-31T17:02:01.524Z,51.53
2019-01-31T17:04:34.340Z,49.00
2019-01-31T17:07:04.215Z,65.60
2019-01-31T17:09:34.648Z,60.93
2019-01-31T17:12:07.871Z,59.30
2019-01-31T17:14:38.371Z,61.77
2019-01-31T17:17:08.802Z,66.53
2019-01-31T17:19:39.217Z,66.27
2019-01-31T17:22:09.532Z,69.53
2019-01-31T17:24:39.817Z,59.63
2019-01-31T17:27:10.330Z,59.63
2019-01-31T17:29:41.683Z,59.00
2019-01-31T17:32:12.039Z,63.27
2019-01-31T17:34:42.617Z,59.20
2019-01-31T17:37:13.072Z,64.63
2019-01-31T17:39:43.553Z,63.73
2019-01-31T17:42:14.768Z,59.03
2019-01-31T17:44:49.700Z,63.80
2019-01-31T17:47:20.244Z,64.00
2019-01-31T17:49:50.959Z,65.47
2019-01-31T17:52:21.489Z,73.57
2019-01-31T17:54:51.715Z,66.60
2019-01-31T17:57:22.148Z,73.93
2019-01-31T17:59:52.597Z,70.20
2019-01-31T18:02:23.987Z,70.03
2019-01-31T18:04:55.372Z,78.33
2019-01-31T18:07:25.951Z,81.37
2019-01-31T18:09:56.429Z,69.30
2019-01-31T18:12:26.767Z,71.37
2019-01-31T18:14:57.240Z,74.67
2019-01-31T18:17:30.957Z,86.37
2019-01-31T18:20:01.352Z,86.50
2019-01-31T18:22:31.816Z,80.03
2019-01-31T18:25:02.203Z,80.83
2019-01-31T18:27:32.620Z,77.47
2019-01-31T18:30:03.046Z,79.43
2019-01-31T18:32:35.566Z,83.90
2019-01-31T18:35:07.460Z,80.53
2019-01-31T18:37:37.767Z,80.97
2019-01-31T18:40:13.828Z,78.97
2019-01-31T18:42:44.297Z,85.77
2019-01-31T18:45:20.239Z,81.10
2019-01-31T18:47:50.673Z,79.23
2019-01-31T18:50:23.310Z,77.10
2019-01-31T18:52:53.795Z,85.60
2019-01-31T18:55:24.441Z,86.13
2019-01-31T18:57:56.429Z,86.67
2019-01-31T19:00:32.524Z,89.30
2019-01-31T19:03:03.208Z,84.33
2019-01-31T19:05:33.656Z,76.30
2019-01-31T19:08:08.664Z,80.60
2019-01-31T19:10:43.378Z,76.87
2019-01-31T19:13:10.801Z,73.20
2019-01-31T19:15:41.356Z,86.30
2019-01-31T19:18:11.701Z,77.20
2019-01-31T19:20:42.160Z,75.40
2019-01-31T19:23:13.708Z,72.40
2019-01-31T19:25:47.244Z,76.50
2019-01-31T19:28:19.024Z,70.20
2019-01-31T19:30:49.548Z,71.50
2019-01-31T19:33:19.921Z,74.57
2019-01-31T19:35:50.330Z,72.80
2019-01-31T19:38:20.743Z,67.00
2019-01-31T19:40:53.105Z,66.97
2019-01-31T19:43:23.555Z,69.80
2019-01-31T19:45:54.051Z,68.00
2019-01-31T19:48:24.638Z,72.63
2019-01-31T19:50:55.287Z,69.83
2019-01-31T19:53:28.953Z,70.30
2019-01-31T19:55:59.332Z,65.87
2019-01-31T19:58:30.783Z,77.63
2019-01-31T20:01:01.154Z,65.80
2019-01-31T20:03:32.332Z,70.37
2019-01-31T20:06:03.001Z,71.23
2019-01-31T20:08:33.655Z,72.70
2019-01-31T20:11:04.116Z,70.07
2019-01-31T20:13:34.512Z,60.97
2019-01-31T20:16:05.022Z,59.17
2019-01-31T20:18:35.507Z,64.30
2019-01-31T20:21:06.374Z,61.60
2019-01-31T20:23:36.908Z,66.57
2019-01-31T20:26:07.376Z,63.63
2019-01-31T20:28:40.622Z,62.10
2019-01-31T20:31:10.953Z,69.13
2019-01-31T20:33:41.742Z,67.40
2019-01-31T20:36:12.234Z,72.97
2019-01-31T20:38:43.513Z,71.17
2019-01-31T20:41:13.822Z,73.63
2019-01-31T20:43:44.213Z,70.73
2019-01-31T20:46:14.567Z,84.07
2019-01-31T20:48:44.985Z,73.90
2019-01-31T20:51:18.324Z,76.40
2019-01-31T20:53:48.728Z,77.43
2019-01-31T20:56:19.281Z,76.23
2019-01-31T20:58:49.808Z,77.57
2019-01-31T21:01:20.223Z,84.83
2019-01-31T21:03:50.633Z,84.67
2019-01-31T21:06:21.066Z,87.20
2019-01-31T21:08:51.516Z,79.70
2019-01-31T21:11:21.966Z,76.77
2019-01-31T21:13:52.507Z,77.27
2019-01-31T21:16:22.978Z,83.03
2019-01-31T21:18:53.320Z,78.07
2019-01-31T21:21:23.673Z,79.97
2019-01-31T21:23:54.111Z,88.83
2019-01-31T21:26:24.927Z,88.40
2019-01-31T21:28:57.608Z,74.43
2019-01-31T21:31:28.157Z,87.73
2019-01-31T21:33:58.477Z,83.23
2019-01-31T21:36:29.172Z,80.73
2019-01-31T21:38:59.550Z,77.37
2019-01-31T21:41:29.868Z,75.60
2019-01-31T21:44:00.269Z,77.27
2019-01-31T21:46:30.680Z,71.53
2019-01-31T21:49:01.148Z,79.37
2019-01-31T21:51:31.535Z,75.60
2019-01-31T21:54:01.997Z,79.83
2019-01-31T21:56:32.324Z,77.67
2019-01-31T21:59:02.621Z,81.80
2019-01-31T22:01:33.956Z,82.73
2019-01-31T22:04:05.976Z,78.07
2019-01-31T22:06:36.352Z,86.87
2019-01-31T22:09:09.695Z,81.00
2019-01-31T22:11:40.159Z,80.63
2019-01-31T22:14:10.509Z,80.37
2019-01-31T22:16:40.838Z,78.80
2019-01-31T22:19:11.218Z,76.47
2019-01-31T22:21:41.499Z,75.33
2019-01-31T22:24:12.375Z,74.87
2019-01-31T22:26:42.738Z,67.50
2019-01-31T22:29:13.196Z,68.80
2019-01-31T22:31:45.874Z,79.37
2019-01-31T22:34:16.307Z,78.37
2019-01-31T22:36:46.812Z,82.37
2019-01-31T22:39:17.214Z,83.10
2019-01-31T22:41:47.492Z,89.20
2019-01-31T22:44:17.878Z,85.17
2019-01-31T22:46:48.248Z,86.43
2019-01-31T22:49:18.638Z,84.60
2019-01-31T22:51:48.890Z,94.00
2019-01-31T22:54:19.226Z,83.57
2019-01-31T22:56:51.056Z,89.90
2019-01-31T22:59:21.416Z,89.27
2019-01-31T23:01:54.631Z,86.00
2019-01-31T23:04:24.961Z,84.47
2019-01-31T23:06:55.259Z,89.43
2019-01-31T23:09:25.627Z,88.23
2019-01-31T23:11:55.973Z,83.50
2019-01-31T23:14:26.909Z,81.10
2019-01-31T23:16:57.221Z,74.40
2019-01-31T23:19:27.502Z,77.07
2019-01-31T23:21:57.871Z,68.63
2019-01-31T23:24:28.336Z,76.60
2019-01-31T23:26:58.663Z,70.50
2019-01-31T23:29:29.085Z,67.80
2019-01-31T23:31:59.487Z,65.30
2019-01-31T23:34:29.999Z,66.40
2019-01-31T23:37:01.379Z,70.67
2019-01-31T23:39:31.813Z,67.53
2019-01-31T23:42:02.153Z,67.70
2019-01-31T23:44:32.469Z,62.23
2019-01-31T23:47:02.729Z,62.63
2019-01-31T23:49:33.034Z,64.60
2019-01-31T23:52:03.346Z,67.63
2019-01-31T23:54:33.745Z,65.23
2019-01-31T23:57:04.014Z,68.30
2019-01-31T23:59:34.354Z,59.70
